Time;durP1;ratioP1;P1;durP2;ratioP2;P2;SDS_P1;SDS_P2;PMS_P1;PMS_P2;Temp;Humidity;BMP_temperature;BMP_pressure;BME280_temperature;BME280_humidity;BME280_pressure;Samples;Min_cycle;Max_cycle;Signal;HPM_P1;HPM_P2
2022/04/02 00:00:28;;;;;;;0.50;0.50;;;2.50;99.90;;;;;;4989048;28;20443;-90
2022/04/02 00:02:54;;;;;;;0.47;0.47;;;2.50;99.90;;;;;;4988343;28;20219;-91
2022/04/02 00:05:29;;;;;;;0.50;0.50;;;2.50;99.90;;;;;;4993371;28;20453;-90
2022/04/02 00:07:55;;;;;;;0.40;0.40;;;2.50;99.90;;;;;;5009222;28;21097;-90
2022/04/02 00:10:26;;;;;;;0.50;0.50;;;2.40;99.90;;;;;;5005707;28;20474;-90
2022/04/02 00:12:54;;;;;;;0.50;0.50;;;2.40;99.90;;;;;;4988797;28;20290;-90
2022/04/02 00:15:20;;;;;;;0.50;0.50;;;2.40;99.90;;;;;;5024439;28;20493;-90
2022/04/02 00:17:45;;;;;;;0.50;0.50;;;2.40;99.90;;;;;;4992244;28;20431;-91
2022/04/02 00:20:11;;;;;;;0.47;0.47;;;2.40;99.90;;;;;;5007154;28;20191;-89
2022/04/02 00:22:37;;;;;;;0.60;0.60;;;2.40;99.90;;;;;;4991008;28;20202;-90
2022/04/02 00:25:03;;;;;;;0.47;0.47;;;2.40;99.90;;;;;;5024437;28;20947;-90
2022/04/02 00:27:28;;;;;;;0.50;0.50;;;2.30;99.90;;;;;;5003019;28;20180;-90
2022/04/02 00:29:54;;;;;;;0.50;0.50;;;2.30;99.90;;;;;;4980370;28;20447;-90
2022/04/02 00:32:25;;;;;;;0.70;0.70;;;2.30;99.90;;;;;;4993032;28;20219;-91
2022/04/02 00:34:59;;;;;;;0.50;0.50;;;2.30;99.90;;;;;;5009652;28;20200;-91
2022/04/02 00:37:27;;;;;;;0.50;0.50;;;2.30;99.90;;;;;;5013550;28;20913;-88
2022/04/02 00:39:52;;;;;;;0.40;0.40;;;2.20;99.90;;;;;;5027108;28;20439;-91
2022/04/02 00:42:18;;;;;;;0.47;0.47;;;2.20;99.90;;;;;;4991896;28;20980;-91
2022/04/02 00:44:44;;;;;;;0.53;0.53;;;2.20;99.90;;;;;;5017369;28;20870;-90
2022/04/02 00:47:12;;;;;;;0.50;0.50;;;2.00;99.90;;;;;;4996571;28;20196;-91
2022/04/02 00:49:38;;;;;;;0.60;0.60;;;2.00;99.90;;;;;;5012628;28;20179;-89
2022/04/02 00:52:03;;;;;;;0.60;0.60;;;2.00;99.90;;;;;;4993761;28;20462;-90
2022/04/02 00:54:29;;;;;;;0.60;0.60;;;2.00;99.90;;;;;;4990303;28;20637;-90
2022/04/02 00:56:55;;;;;;;0.57;0.57;;;2.00;99.90;;;;;;4995892;28;20184;-90
2022/04/02 00:59:21;;;;;;;0.43;0.43;;;2.00;99.90;;;;;;4993379;28;20460;-90
2022/04/02 01:01:46;;;;;;;0.50;0.50;;;1.90;99.90;;;;;;4992167;28;20291;-89
2022/04/02 01:04:12;;;;;;;0.50;0.50;;;1.80;99.90;;;;;;4994374;28;20880;-91
2022/04/02 01:06:40;;;;;;;0.40;0.40;;;1.80;99.90;;;;;;5009033;28;20181;-90
2022/04/02 01:09:06;;;;;;;0.50;0.50;;;1.70;99.90;;;;;;4991510;28;20947;-91
2022/04/02 01:11:36;;;;;;;0.40;0.40;;;1.50;99.90;;;;;;5012772;28;20443;-91
2022/04/02 01:14:02;;;;;;;0.50;0.50;;;1.50;99.90;;;;;;5001016;28;20223;-90
2022/04/02 01:16:27;;;;;;;0.50;0.50;;;1.40;99.90;;;;;;4993062;28;20439;-90
2022/04/02 01:18:53;;;;;;;0.50;0.50;;;1.30;99.90;;;;;;5024056;28;20185;-90
2022/04/02 01:21:19;;;;;;;0.60;0.60;;;1.30;99.90;;;;;;5015778;28;20227;-90
2022/04/02 01:23:44;;;;;;;0.50;0.50;;;1.20;99.90;;;;;;5013013;28;20196;-89
2022/04/02 01:26:10;;;;;;;1.10;1.00;;;1.20;99.90;;;;;;5013397;28;20656;-90
2022/04/02 01:28:35;;;;;;;1.07;0.97;;;1.00;99.90;;;;;;5009041;28;20196;-90
2022/04/02 01:31:04;;;;;;;0.70;0.70;;;1.00;99.90;;;;;;5012214;28;20599;-91
2022/04/02 01:33:30;;;;;;;0.40;0.40;;;1.00;99.90;;;;;;5012088;28;20286;-90
2022/04/02 01:36:03;;;;;;;0.53;0.53;;;0.90;99.90;;;;;;5014344;28;20919;-90
2022/04/02 01:38:29;;;;;;;0.60;0.60;;;0.90;99.90;;;;;;4993134;28;20196;-91
2022/04/02 01:40:56;;;;;;;0.60;0.60;;;0.80;99.90;;;;;;4991899;28;20771;-90
2022/04/02 01:43:22;;;;;;;0.60;0.60;;;0.80;99.90;;;;;;5019879;28;20435;-90
2022/04/02 01:45:52;;;;;;;0.67;0.67;;;0.70;99.90;;;;;;5011955;28;20784;-90
2022/04/02 01:48:17;;;;;;;1.10;1.00;;;0.70;99.90;;;;;;5012043;28;20498;-90
2022/04/02 01:50:43;;;;;;;0.80;0.80;;;0.60;99.90;;;;;;5011805;28;20471;-90
2022/04/02 01:53:09;;;;;;;1.20;1.10;;;0.60;99.90;;;;;;5012366;28;20314;-90
2022/04/02 01:55:35;;;;;;;0.60;0.60;;;0.60;99.90;;;;;;5009846;28;20582;-90
2022/04/02 01:58:00;;;;;;;0.60;0.60;;;0.40;99.90;;;;;;5013878;28;20724;-90
2022/04/02 02:00:26;;;;;;;0.60;0.60;;;0.50;99.90;;;;;;5010564;28;20263;-90
2022/04/02 02:02:51;;;;;;;0.87;0.87;;;0.50;99.90;;;;;;5020081;28;20548;-91
2022/04/02 02:05:17;;;;;;;1.37;1.27;;;0.40;99.90;;;;;;5015386;28;20560;-91
2022/04/02 02:07:49;;;;;;;0.90;0.87;;;0.50;99.90;;;;;;5018692;28;20191;-90
2022/04/02 02:10:15;;;;;;;0.60;0.60;;;0.40;99.90;;;;;;4990106;28;20188;-90
2022/04/02 02:12:40;;;;;;;0.50;0.50;;;0.40;99.90;;;;;;5025127;28;20728;-91
2022/04/02 02:15:07;;;;;;;0.60;0.60;;;0.30;99.90;;;;;;5016732;28;20259;-91
2022/04/02 02:17:32;;;;;;;0.60;0.60;;;0.30;99.90;;;;;;5003659;28;20279;-91
2022/04/02 02:19:58;;;;;;;0.50;0.50;;;0.30;99.90;;;;;;5000854;28;21033;-91
2022/04/02 02:22:23;;;;;;;0.50;0.50;;;0.20;99.90;;;;;;5032260;28;20180;-90
2022/04/02 02:24:49;;;;;;;0.50;0.50;;;0.20;99.90;;;;;;5014197;28;20172;-91
2022/04/02 02:27:14;;;;;;;0.60;0.60;;;0.20;99.90;;;;;;5011460;28;20199;-91
2022/04/02 02:29:40;;;;;;;0.70;0.70;;;0.20;99.90;;;;;;4995190;28;20654;-91
2022/04/02 02:32:06;;;;;;;0.50;0.50;;;0.20;99.90;;;;;;5008980;28;20570;-91
2022/04/02 02:37:16;;;;;;;0.70;0.70;;;0.20;99.90;;;;;;5017196;28;20442;-91
2022/04/02 02:39:42;;;;;;;0.53;0.53;;;0.20;99.90;;;;;;5010318;28;20813;-89
2022/04/02 02:42:08;;;;;;;0.70;0.70;;;0.00;99.90;;;;;;4994652;28;20478;-91
2022/04/02 02:44:33;;;;;;;0.70;0.70;;;0.10;99.90;;;;;;5008044;28;20475;-91
2022/04/02 02:46:59;;;;;;;0.70;0.70;;;0.10;99.90;;;;;;5006843;28;20246;-91
2022/04/02 02:49:24;;;;;;;0.60;0.60;;;0.00;99.90;;;;;;4996927;28;20200;-90
2022/04/02 02:51:50;;;;;;;0.60;0.60;;;0.10;99.90;;;;;;5020826;28;20195;-89
2022/04/02 02:54:16;;;;;;;0.60;0.60;;;0.10;99.90;;;;;;5014196;28;20227;-91
2022/04/02 02:56:41;;;;;;;12.50;11.70;;;0.10;99.90;;;;;;5018205;28;20444;-90
2022/04/02 02:59:07;;;;;;;0.70;0.70;;;0.10;99.90;;;;;;5011329;28;20189;-91
2022/04/02 03:01:33;;;;;;;0.60;0.60;;;0.10;99.90;;;;;;5010679;28;20196;-90
2022/04/02 03:03:58;;;;;;;0.70;0.70;;;0.10;99.90;;;;;;5011348;28;20188;-90
2022/04/02 03:06:24;;;;;;;0.60;0.60;;;0.10;99.90;;;;;;5011277;28;20184;-91
2022/04/02 03:08:49;;;;;;;0.70;0.70;;;0.10;99.90;;;;;;4993762;28;20188;-91
2022/04/02 03:11:15;;;;;;;0.70;0.70;;;0.10;99.90;;;;;;5002668;28;20196;-91
2022/04/02 03:13:41;;;;;;;0.60;0.60;;;0.20;99.90;;;;;;5011364;28;20601;-91
2022/04/02 03:16:06;;;;;;;0.60;0.60;;;0.20;99.90;;;;;;5010186;28;20714;-91
2022/04/02 03:18:32;;;;;;;0.60;0.60;;;0.20;99.90;;;;;;5009754;28;20539;-91
2022/04/02 03:20:58;;;;;;;0.60;0.60;;;0.20;99.90;;;;;;4990395;28;20271;-91
2022/04/02 03:23:23;;;;;;;0.70;0.70;;;0.20;99.90;;;;;;5000912;28;20784;-91
2022/04/02 03:25:49;;;;;;;0.50;0.50;;;0.20;99.90;;;;;;5010477;28;20206;-91
2022/04/02 03:28:14;;;;;;;0.67;0.67;;;0.30;99.90;;;;;;4991992;28;20188;-92
2022/04/02 03:30:40;;;;;;;0.50;0.50;;;0.30;99.90;;;;;;5012967;28;20181;-90
2022/04/02 03:33:05;;;;;;;0.63;0.63;;;0.40;99.90;;;;;;4987111;28;20312;-90
2022/04/02 03:35:31;;;;;;;0.70;0.70;;;0.40;99.90;;;;;;5008099;28;20212;-91
2022/04/02 03:37:56;;;;;;;0.60;0.60;;;0.30;99.90;;;;;;4997952;28;20195;-90
2022/04/02 03:40:24;;;;;;;0.60;0.60;;;0.20;99.90;;;;;;5013335;28;20640;-91
2022/04/02 03:42:50;;;;;;;0.60;0.60;;;0.30;99.90;;;;;;4997890;28;20284;-90
2022/04/02 03:45:17;;;;;;;0.50;0.50;;;0.20;99.90;;;;;;4992718;28;20538;-90
2022/04/02 03:47:44;;;;;;;0.50;0.50;;;0.20;99.90;;;;;;5015544;28;20445;-91
2022/04/02 03:50:10;;;;;;;0.50;0.50;;;0.10;99.90;;;;;;4993321;28;20535;-90
2022/04/02 03:52:36;;;;;;;0.57;0.57;;;0.00;99.90;;;;;;5000109;28;20788;-90
2022/04/02 03:55:03;;;;;;;0.80;0.80;;;0.10;99.90;;;;;;5009670;28;20471;-91
2022/04/02 03:57:28;;;;;;;0.70;0.70;;;0.00;99.90;;;;;;5004655;28;20451;-91
2022/04/02 03:59:54;;;;;;;0.60;0.60;;;0.00;99.90;;;;;;5008830;28;20435;-91
2022/04/02 04:02:21;;;;;;;0.67;0.67;;;0.00;99.90;;;;;;4990984;28;20576;-91
2022/04/02 04:04:46;;;;;;;0.57;0.57;;;-0.10;99.90;;;;;;4999793;28;20184;-91
2022/04/02 04:07:12;;;;;;;0.70;0.70;;;-0.20;99.90;;;;;;5010278;28;20509;-92
2022/04/02 04:09:40;;;;;;;0.60;0.60;;;-0.20;99.90;;;;;;5015789;28;20207;-92
2022/04/02 04:12:06;;;;;;;0.70;0.70;;;-0.20;99.90;;;;;;5003912;28;20558;-90
2022/04/02 04:14:32;;;;;;;0.90;0.90;;;-0.10;99.90;;;;;;5002237;28;20466;-91
2022/04/02 04:16:58;;;;;;;0.63;0.63;;;-0.20;99.90;;;;;;5019050;28;20797;-91
2022/04/02 04:19:23;;;;;;;0.60;0.60;;;-0.20;99.90;;;;;;5008426;28;20196;-92
2022/04/02 04:21:49;;;;;;;0.63;0.63;;;-0.30;99.90;;;;;;5033593;28;20190;-91
2022/04/02 04:24:15;;;;;;;0.60;0.60;;;-0.30;99.90;;;;;;5013511;28;20214;-92
2022/04/02 04:26:41;;;;;;;0.57;0.57;;;-0.30;99.90;;;;;;5005917;28;20207;-91
2022/04/02 04:29:07;;;;;;;0.47;0.47;;;-0.30;99.90;;;;;;4994760;28;20196;-91
2022/04/02 04:31:34;;;;;;;0.70;0.70;;;-0.20;99.90;;;;;;5012144;28;20452;-91
2022/04/02 04:33:59;;;;;;;0.73;0.73;;;-0.20;99.90;;;;;;5013995;28;20493;-91
2022/04/02 04:36:25;;;;;;;0.60;0.60;;;-0.30;99.90;;;;;;4996317;28;20450;-91
2022/04/02 04:38:51;;;;;;;0.60;0.60;;;-0.20;99.90;;;;;;5010826;28;20807;-91
2022/04/02 04:41:17;;;;;;;0.70;0.70;;;-0.40;99.90;;;;;;4992971;28;20236;-92
2022/04/02 04:43:44;;;;;;;0.50;0.50;;;-0.40;99.90;;;;;;4995386;28;20505;-92
2022/04/02 04:46:10;;;;;;;0.50;0.50;;;-0.20;99.90;;;;;;5012752;28;20458;-91
2022/04/02 04:48:36;;;;;;;0.60;0.60;;;-0.30;99.90;;;;;;5013285;28;20810;-92
2022/04/02 04:51:03;;;;;;;0.70;0.70;;;-0.20;99.90;;;;;;5013943;28;20622;-91
2022/04/02 04:53:28;;;;;;;0.60;0.60;;;-0.20;99.90;;;;;;5013751;28;20478;-91
2022/04/02 04:55:54;;;;;;;0.57;0.57;;;-0.10;99.90;;;;;;5009372;28;20447;-91
2022/04/02 04:58:20;;;;;;;0.60;0.60;;;-0.10;99.90;;;;;;5007138;28;20649;-91
2022/04/02 05:00:46;;;;;;;0.70;0.70;;;0.00;99.90;;;;;;5011904;28;20239;-92
2022/04/02 05:03:12;;;;;;;0.60;0.60;;;0.00;99.90;;;;;;5024579;28;20466;-92
2022/04/02 05:05:38;;;;;;;0.60;0.60;;;0.00;99.90;;;;;;5025377;28;20176;-90
2022/04/02 05:08:07;;;;;;;0.60;0.60;;;0.10;99.90;;;;;;5019106;28;20458;-90
2022/04/02 05:10:34;;;;;;;0.60;0.60;;;-0.10;99.90;;;;;;5013011;28;20469;-92
2022/04/02 05:13:00;;;;;;;0.53;0.53;;;-0.10;99.90;;;;;;4996251;28;20925;-92
2022/04/02 05:15:26;;;;;;;0.60;0.60;;;-0.10;99.90;;;;;;5008505;28;20541;-91
2022/04/02 05:17:53;;;;;;;0.60;0.60;;;-0.10;99.90;;;;;;5006432;28;20542;-92
2022/04/02 05:20:18;;;;;;;0.60;0.60;;;-0.20;99.90;;;;;;5015145;28;20454;-92
2022/04/02 05:22:44;;;;;;;0.70;0.70;;;-0.20;99.90;;;;;;4997334;28;20443;-91
2022/04/02 05:25:14;;;;;;;0.50;0.50;;;-0.10;99.90;;;;;;5013805;28;20184;-93
2022/04/02 05:27:40;;;;;;;0.50;0.50;;;0.00;99.90;;;;;;5012131;28;20443;-93
2022/04/02 05:30:06;;;;;;;0.60;0.60;;;0.00;99.90;;;;;;5012929;28;20538;-91
2022/04/02 05:32:32;;;;;;;0.70;0.70;;;0.00;99.90;;;;;;5010407;28;21070;-90
2022/04/02 05:34:58;;;;;;;0.60;0.60;;;0.00;99.90;;;;;;4987057;28;20531;-91
2022/04/02 05:37:24;;;;;;;0.70;0.70;;;0.10;99.90;;;;;;5007617;28;20212;-92
2022/04/02 05:39:50;;;;;;;0.70;0.70;;;0.10;99.90;;;;;;5025406;28;20482;-92
2022/04/02 05:42:16;;;;;;;0.70;0.70;;;0.30;99.90;;;;;;4989144;28;20663;-92
2022/04/02 05:44:41;;;;;;;0.60;0.60;;;0.30;99.90;;;;;;5008898;28;20451;-93
2022/04/02 05:47:07;;;;;;;0.50;0.50;;;0.50;99.90;;;;;;5010731;28;20574;-92
2022/04/02 05:49:33;;;;;;;0.53;0.53;;;0.50;99.90;;;;;;5015874;28;20203;-92
2022/04/02 05:51:59;;;;;;;0.50;0.50;;;0.80;99.90;;;;;;5032536;28;20188;-92
2022/04/02 05:54:25;;;;;;;2.53;2.43;;;1.00;99.90;;;;;;5016136;28;20487;-90
2022/04/02 05:56:52;;;;;;;1.67;1.57;;;1.20;99.90;;;;;;5009253;28;20997;-91
2022/04/02 05:59:18;;;;;;;3.33;3.03;;;1.30;99.90;;;;;;5004376;28;20189;-89
2022/04/02 06:01:44;;;;;;;1.33;1.23;;;1.50;99.90;;;;;;5011238;28;20450;-92
2022/04/02 06:04:11;;;;;;;1.40;1.30;;;1.70;99.90;;;;;;4993909;28;20457;-91
2022/04/02 06:06:36;;;;;;;2.03;1.90;;;1.80;99.90;;;;;;4990601;28;20966;-91
2022/04/02 06:09:03;;;;;;;0.70;0.70;;;1.90;99.90;;;;;;5002191;28;20435;-91
2022/04/02 06:11:29;;;;;;;1.20;1.10;;;1.90;99.90;;;;;;5015408;28;20191;-91
2022/04/02 06:13:55;;;;;;;0.70;0.70;;;2.00;99.90;;;;;;4996071;28;20513;-92
2022/04/02 06:16:21;;;;;;;0.60;0.60;;;2.10;99.90;;;;;;5009089;28;20883;-92
2022/04/02 06:18:46;;;;;;;0.50;0.50;;;2.30;99.90;;;;;;5012641;28;20263;-91
2022/04/02 06:21:12;;;;;;;0.60;0.60;;;2.40;99.90;;;;;;5013792;28;20219;-93
2022/04/02 06:23:38;;;;;;;0.60;0.60;;;2.60;99.90;;;;;;5013010;28;20263;-92
2022/04/02 06:26:03;;;;;;;0.60;0.60;;;2.70;99.90;;;;;;4992550;28;20668;-92
2022/04/02 06:28:29;;;;;;;0.40;0.40;;;3.00;99.90;;;;;;5014565;28;20493;-92
2022/04/02 06:30:56;;;;;;;0.50;0.50;;;3.40;99.90;;;;;;5013051;28;20192;-91
2022/04/02 06:33:21;;;;;;;0.50;0.50;;;3.60;99.90;;;;;;5003721;28;20887;-91
2022/04/02 06:35:47;;;;;;;0.50;0.50;;;3.50;99.90;;;;;;4989573;28;20443;-91
2022/04/02 06:38:17;;;;;;;0.40;0.40;;;3.10;99.90;;;;;;4990092;28;20232;-91
2022/04/02 06:40:42;;;;;;;0.40;0.40;;;2.80;99.90;;;;;;4984757;28;20284;-94
2022/04/02 06:43:08;;;;;;;0.50;0.50;;;2.60;99.90;;;;;;5010633;28;20890;-90
2022/04/02 06:45:34;;;;;;;0.47;0.47;;;2.80;99.90;;;;;;5006597;28;20615;-90
2022/04/02 06:47:59;;;;;;;0.53;0.53;;;3.10;99.90;;;;;;5007837;28;20246;-91
2022/04/02 06:50:25;;;;;;;0.50;0.50;;;3.00;99.90;;;;;;5005554;28;20439;-89
2022/04/02 06:52:50;;;;;;;0.50;0.50;;;3.20;99.90;;;;;;5004971;28;20216;-90
2022/04/02 06:55:16;;;;;;;0.50;0.50;;;3.40;99.90;;;;;;5006590;28;20239;-90
2022/04/02 06:57:43;;;;;;;0.40;0.40;;;3.70;99.90;;;;;;5006124;28;20346;-90
2022/04/02 07:00:11;;;;;;;0.60;0.60;;;3.90;99.90;;;;;;5010307;28;20184;-90
2022/04/02 07:02:37;;;;;;;0.40;0.40;;;4.10;99.90;;;;;;5008296;28;20442;-91
2022/04/02 07:05:03;;;;;;;0.40;0.40;;;4.40;99.90;;;;;;5011960;28;20439;-92
2022/04/02 07:07:29;;;;;;;0.40;0.40;;;4.30;99.90;;;;;;4992049;28;20566;-92
2022/04/02 07:09:54;;;;;;;0.40;0.40;;;4.30;99.90;;;;;;4989894;28;20604;-91
2022/04/02 07:12:20;;;;;;;0.50;0.50;;;4.30;99.90;;;;;;5008345;28;20216;-89
2022/04/02 07:14:45;;;;;;;0.40;0.40;;;4.20;99.90;;;;;;4984260;28;20215;-91
2022/04/02 07:17:11;;;;;;;0.40;0.40;;;4.30;99.90;;;;;;5008208;28;20230;-90
2022/04/02 07:19:38;;;;;;;0.50;0.50;;;4.60;99.90;;;;;;5010314;28;20207;-90
2022/04/02 07:22:08;;;;;;;0.40;0.40;;;4.60;99.90;;;;;;5003669;28;20198;-88
2022/04/02 07:24:36;;;;;;;0.40;0.40;;;4.70;99.90;;;;;;5008228;28;20518;-90
2022/04/02 07:27:02;;;;;;;0.40;0.40;;;4.70;99.90;;;;;;4982484;28;20435;-89
2022/04/02 07:29:31;;;;;;;0.47;0.47;;;4.90;99.90;;;;;;4990837;28;20858;-88
2022/04/02 07:31:56;;;;;;;0.40;0.40;;;5.00;99.90;;;;;;5005914;28;20980;-89
2022/04/02 07:34:22;;;;;;;0.40;0.40;;;4.80;99.90;;;;;;5010190;28;20466;-90
2022/04/02 07:37:14;;;;;;;0.40;0.40;;;4.80;99.90;;;;;;5004235;28;20324;-90
2022/04/02 07:39:58;;;;;;;0.50;0.50;;;4.60;99.90;;;;;;5006246;28;20215;-89
2022/04/02 07:42:33;;;;;;;0.40;0.40;;;4.60;99.90;;;;;;5007290;28;20443;-89
2022/04/02 07:45:05;;;;;;;0.40;0.40;;;4.60;99.90;;;;;;5003357;28;20821;-88
2022/04/02 07:47:37;;;;;;;0.40;0.40;;;4.80;99.90;;;;;;5002153;28;20450;-89
2022/04/02 07:50:07;;;;;;;0.40;0.40;;;4.60;99.90;;;;;;5007283;28;20459;-91
2022/04/02 07:52:33;;;;;;;0.40;0.40;;;4.80;99.90;;;;;;5009282;28;20470;-90
2022/04/02 07:55:00;;;;;;;0.40;0.40;;;4.60;99.90;;;;;;4984127;28;21004;-92
2022/04/02 07:57:49;;;;;;;0.40;0.40;;;4.50;99.90;;;;;;5008687;28;20439;-91
2022/04/02 08:00:17;;;;;;;0.37;0.37;;;4.60;99.90;;;;;;5010333;28;20438;-89
2022/04/02 08:02:45;;;;;;;0.40;0.40;;;4.60;99.90;;;;;;5007567;28;20443;-90
2022/04/02 08:05:15;;;;;;;0.40;0.40;;;4.80;99.90;;;;;;5006853;28;20446;-89
2022/04/02 08:07:44;;;;;;;0.40;0.40;;;5.00;99.90;;;;;;4993139;28;20454;-89
2022/04/02 08:10:11;;;;;;;0.40;0.40;;;5.20;99.90;;;;;;5007846;28;20946;-90
2022/04/02 08:12:39;;;;;;;0.30;0.30;;;5.30;99.90;;;;;;5009500;28;20475;-90
2022/04/02 08:15:07;;;;;;;0.40;0.40;;;5.10;99.70;;;;;;5008868;28;20533;-90
2022/04/02 08:17:33;;;;;;;0.40;0.40;;;5.00;99.20;;;;;;5011874;28;20450;-90
2022/04/02 08:20:01;;;;;;;0.30;0.30;;;5.20;98.90;;;;;;4988835;28;20443;-89
2022/04/02 08:22:27;;;;;;;0.40;0.40;;;5.00;98.10;;;;;;5009591;28;20424;-88
2022/04/02 08:24:54;;;;;;;0.40;0.40;;;5.10;98.20;;;;;;5017348;28;20939;-89
2022/04/02 08:28:03;;;;;;;0.40;0.40;;;5.10;98.60;;;;;;5004765;28;20504;-89
2022/04/02 08:30:34;;;;;;;0.40;0.40;;;5.30;99.30;;;;;;5009225;28;20428;-88
2022/04/02 08:33:30;;;;;;;0.37;0.37;;;5.70;99.70;;;;;;4991898;28;20819;-88
2022/04/02 08:36:24;;;;;;;0.40;0.40;;;5.70;98.80;;;;;;5009562;28;20489;-89
2022/04/02 08:38:59;;;;;;;0.40;0.40;;;5.70;99.90;;;;;;4963888;28;20484;-89
2022/04/02 08:42:02;;;;;;;0.40;0.40;;;5.40;97.50;;;;;;5009568;28;20528;-89
2022/04/02 08:44:46;;;;;;;0.30;0.30;;;5.50;98.30;;;;;;5009222;28;20811;-89
2022/04/02 08:47:40;;;;;;;0.40;0.40;;;5.70;99.10;;;;;;5008132;28;20990;-89
2022/04/02 08:50:16;;;;;;;0.40;0.40;;;5.90;99.70;;;;;;5010409;28;20446;-90
2022/04/02 08:52:42;;;;;;;0.33;0.33;;;6.50;99.90;;;;;;5011971;28;20688;-89
2022/04/02 08:55:08;;;;;;;0.30;0.30;;;6.80;99.90;;;;;;4996070;28;20553;-87
2022/04/02 08:57:46;;;;;;;0.30;0.30;;;6.90;99.90;;;;;;5013701;28;20183;-90
2022/04/02 09:00:15;;;;;;;0.33;0.33;;;7.20;99.30;;;;;;5012562;28;20962;-89
2022/04/02 09:02:55;;;;;;;0.30;0.30;;;7.10;98.50;;;;;;5013982;28;20427;-90
2022/04/02 09:05:41;;;;;;;0.40;0.40;;;7.00;98.30;;;;;;5009546;28;20462;-87
2022/04/02 09:08:16;;;;;;;0.30;0.30;;;7.50;99.40;;;;;;4999648;28;20565;-89
2022/04/02 09:10:51;;;;;;;0.30;0.30;;;7.30;98.00;;;;;;5013459;28;20418;-88
2022/04/02 09:13:47;;;;;;;0.30;0.30;;;7.40;98.30;;;;;;4999016;28;20478;-88
2022/04/02 09:16:50;;;;;;;0.30;0.30;;;7.20;98.80;;;;;;4991582;28;20451;-90
2022/04/02 09:19:30;;;;;;;0.30;0.30;;;7.40;98.60;;;;;;5007074;28;20448;-88
2022/04/02 09:22:33;;;;;;;0.30;0.30;;;7.10;98.70;;;;;;5011407;28;20420;-88
2022/04/02 09:24:58;;;;;;;0.30;0.30;;;7.00;98.30;;;;;;4977315;28;21098;-89
2022/04/02 09:28:17;;;;;;;0.30;0.30;;;7.70;99.40;;;;;;5011952;28;20547;-89
2022/04/02 09:31:24;;;;;;;0.30;0.30;;;7.70;98.00;;;;;;4954264;28;20274;-89
2022/04/02 09:34:10;;;;;;;0.30;0.30;;;7.90;97.80;;;;;;4951710;29;20489;-88
2022/04/02 09:37:13;;;;;;;0.30;0.30;;;8.00;97.50;;;;;;5011044;28;20454;-88
2022/04/02 09:40:05;;;;;;;0.30;0.30;;;8.30;95.50;;;;;;4979324;28;20963;-89
2022/04/02 09:42:44;;;;;;;0.30;0.30;;;8.30;96.30;;;;;;5009981;28;20439;-88
2022/04/02 09:45:14;;;;;;;0.30;0.30;;;8.40;97.20;;;;;;5009234;28;20453;-88
2022/04/02 09:47:48;;;;;;;0.30;0.30;;;8.30;98.40;;;;;;4998353;28;21138;-89
2022/04/02 09:50:22;;;;;;;0.30;0.30;;;8.90;97.40;;;;;;5007200;28;20438;-88
2022/04/02 09:53:12;;;;;;;0.20;0.20;;;8.60;95.40;;;;;;5005997;28;20493;-88
2022/04/02 09:56:01;;;;;;;0.30;0.30;;;8.60;95.50;;;;;;5023660;28;20506;-89
2022/04/02 09:59:05;;;;;;;0.20;0.20;;;8.70;94.60;;;;;;4998289;28;20512;-88
2022/04/02 10:01:37;;;;;;;0.30;0.30;;;9.10;94.70;;;;;;4998270;28;20451;-86
2022/04/02 10:04:37;;;;;;;0.20;0.20;;;8.90;94.70;;;;;;5006534;28;20438;-87
2022/04/02 10:07:05;;;;;;;0.30;0.30;;;9.20;95.30;;;;;;5013064;28;20483;-88
2022/04/02 10:09:35;;;;;;;0.30;0.30;;;9.10;92.20;;;;;;5007437;28;20431;-89
2022/04/02 10:12:05;;;;;;;0.30;0.30;;;9.20;91.60;;;;;;5011351;28;20804;-89
2022/04/02 10:14:34;;;;;;;0.30;0.30;;;9.30;91.60;;;;;;4989212;28;20474;-87
2022/04/02 10:17:09;;;;;;;0.20;0.20;;;9.80;90.40;;;;;;5009834;28;20866;-86
2022/04/02 10:19:37;;;;;;;0.20;0.20;;;10.00;90.90;;;;;;5012830;28;20465;-87
2022/04/02 10:22:05;;;;;;;0.30;0.30;;;9.90;89.40;;;;;;4990164;28;20534;-83
2022/04/02 10:24:47;;;;;;;0.20;0.20;;;10.00;86.50;;;;;;5005111;28;20451;-85
2022/04/02 10:27:29;;;;;;;0.20;0.20;;;9.80;85.80;;;;;;5009324;28;20597;-84
2022/04/02 10:29:58;;;;;;;0.20;0.20;;;10.40;88.30;;;;;;5008324;28;20439;-83
2022/04/02 10:32:47;;;;;;;0.20;0.20;;;10.30;85.60;;;;;;4999847;28;20605;-83
2022/04/02 10:35:13;;;;;;;0.20;0.20;;;10.10;82.50;;;;;;5010732;28;20431;-82
2022/04/02 10:37:42;;;;;;;0.20;0.20;;;10.50;81.10;;;;;;5011597;28;20485;-83
2022/04/02 10:40:12;;;;;;;0.20;0.20;;;10.30;81.80;;;;;;4992254;28;20522;-84
2022/04/02 10:42:40;;;;;;;0.20;0.20;;;10.60;83.20;;;;;;4992850;28;20439;-85
2022/04/02 10:45:10;;;;;;;0.20;0.20;;;10.40;84.60;;;;;;4987934;28;20439;-83
2022/04/02 10:47:46;;;;;;;0.20;0.20;;;11.20;87.00;;;;;;5002566;28;20451;-86
2022/04/02 10:50:16;;;;;;;0.10;0.10;;;11.60;84.40;;;;;;4993339;28;20450;-87
2022/04/02 10:52:46;;;;;;;0.20;0.20;;;11.40;82.40;;;;;;5010555;28;20499;-84
2022/04/02 10:55:17;;;;;;;0.10;0.10;;;11.80;86.70;;;;;;5008588;28;20509;-84
2022/04/02 10:57:43;;;;;;;0.10;0.10;;;11.90;79.00;;;;;;5005597;28;20439;-84
2022/04/02 11:00:10;;;;;;;0.10;0.10;;;11.40;75.00;;;;;;5008351;28;20473;-84
2022/04/02 11:02:46;;;;;;;0.10;0.10;;;11.60;79.30;;;;;;5022024;28;20454;-84
2022/04/02 11:05:16;;;;;;;0.20;0.20;;;11.50;78.20;;;;;;4993538;28;20441;-86
2022/04/02 11:07:45;;;;;;;0.10;0.10;;;11.60;77.90;;;;;;5007742;28;20517;-84
2022/04/02 11:10:16;;;;;;;0.10;0.10;;;11.60;76.90;;;;;;5008227;28;20521;-86
2022/04/02 11:12:44;;;;;;;0.10;0.10;;;11.60;75.00;;;;;;4992231;28;20498;-86
2022/04/02 11:15:21;;;;;;;0.10;0.10;;;12.10;76.70;;;;;;5007010;28;20435;-85
2022/04/02 11:17:48;;;;;;;0.10;0.10;;;12.40;76.50;;;;;;5015613;28;20474;-85
2022/04/02 11:20:17;;;;;;;0.10;0.10;;;12.60;77.20;;;;;;5009139;28;20459;-85
2022/04/02 11:22:51;;;;;;;0.10;0.10;;;12.50;75.60;;;;;;4987816;28;20542;-86
2022/04/02 11:25:31;;;;;;;0.10;0.10;;;12.30;69.00;;;;;;4990522;28;20568;-83
2022/04/02 11:28:14;;;;;;;0.10;0.10;;;12.00;73.70;;;;;;5006700;28;20824;-87
2022/04/02 11:30:50;;;;;;;0.10;0.10;;;12.10;73.20;;;;;;5012118;28;20469;-86
2022/04/02 11:33:21;;;;;;;0.10;0.10;;;12.80;71.20;;;;;;5003614;28;21029;-87
2022/04/02 11:35:55;;;;;;;0.10;0.10;;;13.00;73.80;;;;;;5008909;28;20431;-87
2022/04/02 11:38:20;;;;;;;0.10;0.10;;;13.10;74.10;;;;;;4988927;28;20454;-86
2022/04/02 11:41:16;;;;;;;0.10;0.10;;;13.40;72.50;;;;;;5008793;28;20438;-84
2022/04/02 11:43:44;;;;;;;0.10;0.10;;;13.60;70.90;;;;;;4995633;28;20724;-84
2022/04/02 11:46:12;;;;;;;0.10;0.10;;;13.60;64.40;;;;;;5003252;28;20446;-85
2022/04/02 11:48:51;;;;;;;0.10;0.10;;;13.30;67.70;;;;;;4991111;28;20509;-82
2022/04/02 11:51:20;;;;;;;0.10;0.10;;;13.60;68.50;;;;;;4984620;28;20986;-85
2022/04/02 11:53:46;;;;;;;0.10;0.10;;;13.90;66.70;;;;;;5006019;28;20495;-83
2022/04/02 11:56:36;;;;;;;0.10;0.10;;;13.30;62.40;;;;;;4991636;28;20512;-83
2022/04/02 11:59:07;;;;;;;0.10;0.10;;;13.30;60.80;;;;;;5003689;28;20526;-87
2022/04/02 12:01:42;;;;;;;0.10;0.10;;;13.50;61.50;;;;;;5005053;28;20533;-87
2022/04/02 12:04:14;;;;;;;0.10;0.10;;;13.80;60.50;;;;;;5006096;28;20977;-86
2022/04/02 12:06:41;;;;;;;0.10;0.10;;;13.80;59.50;;;;;;5002128;28;20459;-86
2022/04/02 12:09:15;;;;;;;0.10;0.10;;;13.80;61.80;;;;;;5004186;28;20447;-86
2022/04/02 12:11:55;;;;;;;0.10;0.10;;;13.90;61.40;;;;;;5002823;28;20446;-86
2022/04/02 12:14:40;;;;;;;0.10;0.10;;;14.30;59.40;;;;;;5008058;28;20677;-87
2022/04/02 12:17:14;;;;;;;0.10;0.10;;;14.10;60.30;;;;;;4985193;28;20446;-87
2022/04/02 12:19:41;;;;;;;0.10;0.10;;;13.90;58.50;;;;;;5004251;28;20430;-87
2022/04/02 12:22:33;;;;;;;0.10;0.00;;;14.20;61.40;;;;;;5006047;28;20443;-89
2022/04/02 12:25:08;;;;;;;0.10;0.00;;;14.50;60.90;;;;;;5008530;28;20465;-88
2022/04/02 12:27:35;;;;;;;0.10;0.10;;;14.70;58.80;;;;;;5017143;28;20531;-88
2022/04/02 12:30:09;;;;;;;0.10;0.00;;;14.60;59.80;;;;;;5010803;28;20454;-87
2022/04/02 12:32:44;;;;;;;0.10;0.00;;;14.70;61.60;;;;;;5008279;28;20474;-87
2022/04/02 12:35:13;;;;;;;0.10;0.00;;;14.80;58.10;;;;;;4992350;28;20461;-87
2022/04/02 12:37:54;;;;;;;0.10;0.10;;;14.40;60.50;;;;;;5006066;28;20515;-87
2022/04/02 12:40:25;;;;;;;0.10;0.00;;;13.80;59.10;;;;;;5011264;28;20450;-84
2022/04/02 12:43:00;;;;;;;0.10;0.00;;;14.60;60.80;;;;;;5007926;28;20454;-87
2022/04/02 12:45:28;;;;;;;0.10;0.00;;;14.90;57.60;;;;;;5006468;28;20439;-85
2022/04/02 12:48:09;;;;;;;0.10;0.00;;;13.70;59.80;;;;;;5014235;28;20814;-84
2022/04/02 12:51:01;;;;;;;0.10;0.10;;;13.80;60.60;;;;;;5028082;28;20528;-86
2022/04/02 12:53:38;;;;;;;0.10;0.00;;;14.10;59.50;;;;;;5003050;28;20475;-87
2022/04/02 12:56:06;;;;;;;0.10;0.10;;;14.30;56.80;;;;;;5006087;28;20458;-87
2022/04/02 12:58:40;;;;;;;0.10;0.00;;;14.40;57.10;;;;;;5010305;28;20894;-87
2022/04/02 13:01:16;;;;;;;0.10;0.10;;;14.90;58.70;;;;;;5008275;28;20473;-87
2022/04/02 13:03:48;;;;;;;0.10;0.00;;;15.80;61.50;;;;;;5006361;28;20515;-86
2022/04/02 13:06:20;;;;;;;0.10;0.00;;;15.30;58.80;;;;;;4994605;28;20946;-89
2022/04/02 13:08:56;;;;;;;0.10;0.00;;;16.10;59.10;;;;;;5010063;28;20451;-88
2022/04/02 13:11:31;;;;;;;0.10;0.00;;;16.10;59.10;;;;;;5014156;28;20449;-87